| Date | Time | Temp. (oF) | Dew Point (oF) | Rel. Hum. (%) | Press. (in.) | Wind Dir. | Wind Speed (mph) | Hourly Rainfall (in.) |
|
|---|---|---|---|---|---|---|---|---|---|
| 1 | 06/13 | 00:00 | 76 | 64 | 67 | 29.81 | W | 0 | 0.00 |
| 2 | 06/12 | 23:00 | 79 | 67 | 69 | 29.81 | WNW | 4 | 0.00 |
| 3 | 06/12 | 22:00 | 79 | 69 | 72 | 29.79 | SSW | 5 | 0.00 |
| 4 | 06/12 | 21:00 | 78 | 68 | 72 | 29.76 | SSW | 3 | 0.00 |
| 5 | 06/12 | 20:00 | 80 | 68 | 68 | 29.77 | SW | 2 | 0.00 |
| 6 | 06/12 | 19:00 | 83 | 69 | 64 | 29.77 | SSW | 9 | 0.00 |
| 7 | 06/12 | 18:00 | 85 | 70 | 63 | 29.77 | S | 8 | 0.00 |
| 8 | 06/12 | 17:00 | 86 | 71 | 63 | 29.76 | SSW | 6 | 0.00 |
| 9 | 06/12 | 16:00 | 86 | 77 | 76 | 29.76 | SSW | 0 | 0.00 |
| 10 | 06/12 | 15:00 | 80 | 70 | 73 | 29.79 | E | 6 | 0.22 |
| 11 | 06/12 | 14:00 | 89 | 70 | 54 | 29.81 | SSW | 7 | 0.00 |
| 12 | 06/12 | 13:00 | 89 | 70 | 55 | 29.82 | S | 5 | 0.00 |
| 13 | 06/12 | 12:00 | 88 | 71 | 58 | 29.84 | W | 3 | 0.00 |
| 14 | 06/12 | 11:00 | 85 | 72 | 66 | 29.86 | WSW | 4 | 0.00 |
| 15 | 06/12 | 10:00 | 82 | 71 | 70 | 29.87 | SSW | 4 | 0.00 |
| 16 | 06/12 | 09:00 | 79 | 70 | 75 | 29.87 | SSE | 3 | 0.00 |
| 17 | 06/12 | 08:00 | 75 | 69 | 84 | 29.88 | SSE | 0 | 0.00 |
| 18 | 06/12 | 07:00 | 71 | 66 | 85 | 29.87 | S | 0 | 0.00 |
| 19 | 06/12 | 06:00 | 70 | 65 | 85 | 29.86 | S | 0 | 0.00 |
| 20 | 06/12 | 05:00 | 70 | 65 | 85 | 29.86 | SSE | 0 | 0.00 |
| 21 | 06/12 | 04:00 | 71 | 65 | 84 | 29.84 | SSW | 0 | 0.00 |
| 22 | 06/12 | 03:00 | 72 | 66 | 83 | 29.84 | SSW | 0 | 0.00 |
| 23 | 06/12 | 02:00 | 73 | 66 | 79 | 29.85 | S | 0 | 0.00 |
| 24 | 06/12 | 01:00 | 75 | 66 | 76 | 29.86 | SSW | 0 | 0.00 |